createdAt,value
2017-08-24T00:00:17.686Z,30.00
2017-08-24T00:01:21.969Z,29.80
2017-08-24T00:02:26.238Z,29.50
2017-08-24T00:03:30.692Z,29.10
2017-08-24T00:04:35.126Z,28.90
2017-08-24T00:05:39.566Z,28.90
2017-08-24T00:06:44.002Z,29.60
2017-08-24T00:07:48.494Z,31.00
2017-08-24T00:08:52.912Z,33.10
2017-08-24T00:09:57.360Z,35.50
2017-08-24T00:11:01.660Z,38.10
2017-08-24T00:12:06.175Z,40.50
2017-08-24T00:13:10.522Z,42.70
2017-08-24T00:14:14.813Z,44.80
2017-08-24T00:15:19.287Z,46.60
2017-08-24T00:16:23.693Z,48.40
2017-08-24T00:17:28.115Z,50.00
2017-08-24T00:18:32.393Z,51.30
2017-08-24T00:19:36.679Z,52.70
2017-08-24T00:20:41.157Z,53.80
2017-08-24T00:21:45.513Z,54.70
2017-08-24T00:22:49.993Z,55.70
2017-08-24T00:23:54.278Z,56.70
2017-08-24T00:24:58.758Z,57.50
2017-08-24T00:26:03.160Z,58.40
2017-08-24T00:27:07.447Z,59.20
2017-08-24T00:28:11.757Z,60.20
2017-08-24T00:29:16.041Z,61.30
2017-08-24T00:30:20.332Z,62.40
2017-08-24T00:31:24.638Z,63.60
2017-08-24T00:32:28.927Z,64.90
2017-08-24T00:33:33.216Z,66.10
2017-08-24T00:34:37.501Z,67.50
2017-08-24T00:35:41.922Z,68.60
2017-08-24T00:36:46.375Z,69.90
2017-08-24T00:37:50.672Z,71.00
2017-08-24T00:38:54.965Z,72.00
2017-08-24T00:39:59.274Z,73.00
2017-08-24T00:41:03.560Z,74.60
2017-08-24T00:42:07.920Z,74.50
2017-08-24T00:43:12.384Z,75.50
2017-08-24T00:44:16.764Z,76.80
2017-08-24T00:45:21.045Z,77.60
2017-08-24T00:46:25.332Z,78.50
2017-08-24T00:47:29.664Z,79.00
2017-08-24T00:48:34.069Z,79.50
2017-08-24T00:49:38.503Z,80.30
2017-08-24T00:50:42.935Z,81.10
2017-08-24T00:51:47.375Z,81.70
2017-08-24T00:52:51.696Z,82.20
2017-08-24T00:53:56.128Z,82.60
2017-08-24T00:55:00.415Z,82.90
2017-08-24T00:56:04.717Z,83.50
2017-08-24T00:57:09.142Z,83.70
2017-08-24T00:58:13.437Z,84.20
2017-08-24T00:59:17.787Z,84.50
2017-08-24T01:00:22.121Z,83.90
2017-08-24T01:01:26.408Z,77.50
2017-08-24T01:02:30.832Z,71.00
2017-08-24T01:03:35.117Z,67.30
2017-08-24T01:04:39.528Z,64.90
2017-08-24T01:05:43.812Z,63.60
2017-08-24T01:06:48.085Z,62.60
2017-08-24T01:07:52.496Z,60.10
2017-08-24T01:08:56.839Z,57.30
2017-08-24T01:10:01.282Z,54.90
2017-08-24T01:11:05.716Z,52.90
2017-08-24T01:12:09.987Z,50.80
2017-08-24T01:13:14.320Z,48.70
2017-08-24T01:14:18.726Z,46.80
2017-08-24T01:15:23.127Z,45.00
2017-08-24T01:16:27.571Z,43.40
2017-08-24T01:17:31.999Z,41.90
2017-08-24T01:18:36.360Z,40.60
2017-08-24T01:19:40.634Z,39.50
2017-08-24T01:20:45.109Z,38.40
2017-08-24T01:21:49.396Z,37.30
2017-08-24T01:22:53.835Z,36.40
2017-08-24T01:23:58.220Z,35.30
2017-08-24T01:25:02.511Z,34.80
2017-08-24T01:26:06.826Z,34.00
2017-08-24T01:27:11.267Z,33.50
2017-08-24T01:28:15.688Z,32.90
2017-08-24T01:29:19.955Z,32.40
2017-08-24T01:30:24.263Z,31.70
2017-08-24T01:31:28.552Z,31.40
2017-08-24T01:32:32.850Z,30.90
2017-08-24T01:33:37.239Z,30.40
2017-08-24T01:34:41.544Z,30.00
2017-08-24T01:35:45.819Z,29.80
2017-08-24T01:36:50.120Z,29.60
2017-08-24T01:37:54.470Z,29.30
2017-08-24T01:38:58.775Z,29.00
2017-08-24T01:40:03.057Z,28.80
2017-08-24T01:41:07.773Z,28.50
2017-08-24T01:42:12.058Z,28.60
2017-08-24T01:43:16.511Z,29.30
2017-08-24T01:44:20.891Z,30.60
2017-08-24T01:45:25.188Z,32.60
2017-08-24T01:46:29.531Z,35.00
2017-08-24T01:47:33.867Z,37.50
2017-08-24T01:48:38.881Z,40.00
2017-08-24T01:49:43.863Z,42.40
2017-08-24T01:50:48.249Z,44.50
2017-08-24T01:51:53.264Z,46.50
2017-08-24T01:52:57.734Z,48.20
2017-08-24T01:54:02.154Z,49.80
2017-08-24T01:55:06.625Z,51.20
2017-08-24T01:56:11.598Z,52.30
2017-08-24T01:57:15.985Z,53.50
2017-08-24T01:58:20.285Z,54.70
2017-08-24T01:59:24.606Z,55.50
2017-08-24T02:00:29.015Z,56.40
2017-08-24T02:01:33.345Z,57.30
2017-08-24T02:02:37.777Z,58.30
2017-08-24T02:03:42.155Z,59.10
2017-08-24T02:04:47.156Z,60.00
2017-08-24T02:05:51.566Z,60.80
2017-08-24T02:06:55.971Z,61.80
2017-08-24T02:08:00.976Z,63.00
2017-08-24T02:09:05.981Z,64.00
2017-08-24T02:10:10.393Z,65.20
2017-08-24T02:11:15.387Z,66.30
2017-08-24T02:12:20.391Z,67.60
2017-08-24T02:13:24.786Z,68.60
2017-08-24T02:14:29.137Z,69.80
2017-08-24T02:15:33.464Z,71.00
2017-08-24T02:16:37.884Z,71.90
2017-08-24T02:17:42.158Z,72.90
2017-08-24T02:18:46.446Z,74.00
2017-08-24T02:19:50.887Z,75.40
2017-08-24T02:20:55.165Z,76.30
2017-08-24T02:21:59.458Z,77.60
2017-08-24T02:23:03.881Z,78.20
2017-08-24T02:24:08.262Z,79.10
2017-08-24T02:25:12.649Z,80.10
2017-08-24T02:26:16.924Z,80.50
2017-08-24T02:27:21.214Z,81.00
2017-08-24T02:28:25.575Z,81.70
2017-08-24T02:29:30.129Z,82.30
2017-08-24T02:30:34.465Z,82.70
2017-08-24T02:31:38.765Z,83.20
2017-08-24T02:32:43.103Z,83.50
2017-08-24T02:33:47.398Z,83.70
2017-08-24T02:34:51.676Z,84.10
2017-08-24T02:35:56.093Z,84.40
2017-08-24T02:37:00.494Z,84.70
2017-08-24T02:38:04.784Z,84.80
2017-08-24T02:39:09.073Z,84.90
2017-08-24T02:40:13.420Z,84.40
2017-08-24T02:41:17.798Z,78.00
2017-08-24T02:42:22.118Z,72.20
2017-08-24T02:43:26.551Z,68.30
2017-08-24T02:44:30.877Z,65.30
2017-08-24T02:45:35.161Z,64.40
2017-08-24T02:46:39.452Z,63.40
2017-08-24T02:47:43.742Z,60.60
2017-08-24T02:48:48.028Z,57.60
2017-08-24T02:49:52.360Z,55.70
2017-08-24T02:50:56.643Z,53.50
2017-08-24T02:52:00.930Z,51.30
2017-08-24T02:53:05.357Z,49.50
2017-08-24T02:54:09.633Z,47.60
2017-08-24T02:55:13.914Z,45.60
2017-08-24T02:56:18.326Z,43.80
2017-08-24T02:57:22.697Z,42.40
2017-08-24T02:58:27.113Z,41.00
2017-08-24T02:59:31.453Z,39.60
2017-08-24T03:00:35.870Z,38.50
2017-08-24T03:01:40.625Z,37.30
2017-08-24T03:02:44.909Z,36.40
2017-08-24T03:03:49.262Z,35.30
2017-08-24T03:04:53.674Z,34.70
2017-08-24T03:05:58.021Z,33.90
2017-08-24T03:07:02.304Z,33.40
2017-08-24T03:08:06.608Z,32.70
2017-08-24T03:09:10.873Z,32.20
2017-08-24T03:10:15.251Z,31.60
2017-08-24T03:11:19.665Z,31.30
2017-08-24T03:12:23.939Z,30.60
2017-08-24T03:13:28.358Z,30.10
2017-08-24T03:14:32.698Z,29.60
2017-08-24T03:15:36.997Z,29.40
2017-08-24T03:16:41.296Z,29.10
2017-08-24T03:17:45.652Z,28.90
2017-08-24T03:18:49.972Z,28.60
2017-08-24T03:19:54.291Z,28.30
2017-08-24T03:20:58.700Z,28.20
2017-08-24T03:22:03.415Z,28.00
2017-08-24T03:23:07.807Z,28.10
2017-08-24T03:24:12.155Z,28.80
2017-08-24T03:25:16.690Z,30.10
2017-08-24T03:26:21.320Z,32.20
2017-08-24T03:27:25.717Z,34.50
2017-08-24T03:28:30.244Z,37.10
2017-08-24T03:29:35.109Z,39.50
2017-08-24T03:30:39.750Z,41.70
2017-08-24T03:31:44.314Z,43.80
2017-08-24T03:32:49.108Z,45.70
2017-08-24T03:33:54.000Z,47.50
2017-08-24T03:34:58.547Z,48.90
2017-08-24T03:36:03.152Z,50.30
2017-08-24T03:37:07.698Z,51.60
2017-08-24T03:38:12.202Z,52.70
2017-08-24T03:39:17.146Z,54.00
2017-08-24T03:40:22.003Z,55.20
2017-08-24T03:41:26.699Z,56.40
2017-08-24T03:42:31.232Z,57.50
2017-08-24T03:43:35.675Z,58.50
2017-08-24T03:44:40.284Z,59.60
2017-08-24T03:45:44.740Z,60.50
2017-08-24T03:46:49.351Z,61.30
2017-08-24T03:47:55.356Z,62.30
2017-08-24T03:48:59.992Z,63.30
2017-08-24T03:50:04.622Z,64.40
2017-08-24T03:51:09.306Z,65.50
2017-08-24T03:52:14.003Z,66.50
2017-08-24T03:53:18.593Z,67.70
2017-08-24T03:54:23.068Z,68.70
2017-08-24T03:55:27.637Z,70.00
2017-08-24T03:56:32.190Z,71.30
2017-08-24T03:57:38.114Z,72.30
2017-08-24T03:58:42.773Z,73.70
2017-08-24T03:59:47.678Z,74.60
2017-08-24T04:00:52.196Z,75.70
2017-08-24T04:01:56.621Z,76.50
2017-08-24T04:03:01.220Z,77.40
2017-08-24T04:04:05.745Z,78.20
2017-08-24T04:05:10.626Z,79.00
2017-08-24T04:06:15.093Z,79.60
2017-08-24T04:07:19.648Z,80.10
2017-08-24T04:08:24.334Z,80.80
2017-08-24T04:09:29.052Z,81.30
2017-08-24T04:10:33.573Z,81.80
2017-08-24T04:11:38.033Z,82.20
2017-08-24T04:12:42.441Z,82.50
2017-08-24T04:13:46.803Z,82.80
2017-08-24T04:14:51.426Z,83.20
2017-08-24T04:15:55.812Z,83.10
2017-08-24T04:17:00.478Z,83.20
2017-08-24T04:18:04.999Z,83.70
2017-08-24T04:19:09.646Z,83.70
2017-08-24T04:20:14.108Z,83.90
2017-08-24T04:21:18.679Z,84.10
2017-08-24T04:22:23.480Z,84.20
2017-08-24T04:23:28.119Z,84.40
2017-08-24T04:24:32.584Z,84.30
2017-08-24T04:25:37.073Z,78.20
2017-08-24T04:26:41.727Z,71.70
2017-08-24T04:27:47.897Z,68.50
2017-08-24T04:28:52.703Z,66.00
2017-08-24T04:29:57.188Z,64.90
2017-08-24T04:31:01.722Z,63.80
2017-08-24T04:32:06.115Z,62.60
2017-08-24T04:33:10.866Z,58.80
2017-08-24T04:34:15.732Z,56.30
2017-08-24T04:35:20.228Z,54.10
2017-08-24T04:36:24.751Z,52.10
2017-08-24T04:37:30.740Z,49.80
2017-08-24T04:38:35.468Z,47.80
2017-08-24T04:39:40.060Z,45.90
2017-08-24T04:40:44.783Z,43.90
2017-08-24T04:41:49.697Z,42.40
2017-08-24T04:42:54.406Z,40.80
2017-08-24T04:43:59.043Z,39.60
2017-08-24T04:45:03.829Z,38.30
2017-08-24T04:46:09.008Z,37.10
2017-08-24T04:47:13.677Z,36.20
2017-08-24T04:48:18.381Z,35.40
2017-08-24T04:49:23.149Z,34.50
2017-08-24T04:50:27.793Z,33.80
2017-08-24T04:51:32.742Z,33.30
2017-08-24T04:52:37.611Z,32.60
2017-08-24T04:53:42.510Z,32.00
2017-08-24T04:54:47.201Z,31.40
2017-08-24T04:55:52.733Z,31.00
2017-08-24T04:56:57.372Z,30.50
2017-08-24T04:58:02.091Z,30.10
2017-08-24T04:59:06.595Z,29.90
2017-08-24T05:00:11.224Z,29.60
2017-08-24T05:01:15.840Z,29.10
2017-08-24T05:02:20.479Z,28.90
2017-08-24T05:03:25.224Z,28.70
2017-08-24T05:04:29.903Z,28.40
2017-08-24T05:05:34.765Z,28.10
2017-08-24T05:06:39.349Z,27.80
2017-08-24T05:07:44.341Z,28.30
2017-08-24T05:08:49.005Z,29.30
2017-08-24T05:09:53.702Z,30.90
2017-08-24T05:10:59.845Z,33.30
2017-08-24T05:12:04.314Z,67.40
2017-08-24T05:13:09.102Z,69.30
2017-08-24T05:14:13.628Z,82.30
2017-08-24T05:15:18.422Z,81.10
2017-08-24T05:16:23.327Z,79.80
2017-08-24T05:17:27.747Z,79.00
2017-08-24T05:18:32.543Z,78.30
2017-08-24T05:19:37.181Z,87.60
2017-08-24T05:20:41.881Z,85.60
2017-08-24T05:21:46.436Z,84.10
2017-08-24T05:22:51.223Z,83.10
2017-08-24T05:23:55.700Z,82.40
2017-08-24T05:25:00.358Z,81.60
2017-08-24T05:26:05.979Z,81.10
2017-08-24T05:27:10.578Z,80.60
2017-08-24T05:28:15.337Z,86.70
2017-08-24T05:29:19.816Z,86.10
2017-08-24T05:30:24.646Z,85.80
2017-08-24T05:31:29.157Z,85.40
2017-08-24T05:32:33.939Z,85.20
2017-08-24T05:33:38.679Z,85.10
2017-08-24T05:34:43.230Z,85.10
2017-08-24T05:35:48.871Z,85.20
2017-08-24T05:36:53.404Z,86.20
2017-08-24T05:37:57.893Z,88.00
2017-08-24T05:39:02.698Z,90.00
2017-08-24T05:40:07.344Z,90.90
2017-08-24T05:41:11.943Z,90.90
2017-08-24T05:42:16.683Z,90.50
2017-08-24T05:43:21.391Z,90.30
2017-08-24T05:44:27.409Z,90.20
2017-08-24T05:45:31.885Z,90.40
2017-08-24T05:46:36.538Z,90.70
2017-08-24T05:47:41.094Z,90.70
2017-08-24T05:48:45.734Z,90.40
2017-08-24T05:49:50.419Z,90.30
2017-08-24T05:50:55.152Z,89.40
2017-08-24T05:51:59.849Z,85.20
2017-08-24T05:53:04.587Z,81.90
2017-08-24T05:54:10.634Z,80.20
2017-08-24T05:55:15.491Z,79.30
2017-08-24T05:56:20.066Z,78.40
2017-08-24T05:57:24.912Z,76.60
2017-08-24T05:58:29.613Z,72.90
2017-08-24T05:59:34.136Z,68.50
2017-08-24T06:00:38.672Z,64.10
2017-08-24T06:01:43.581Z,60.00
2017-08-24T06:02:48.030Z,57.10
2017-08-24T06:03:52.641Z,54.60
2017-08-24T06:04:57.213Z,52.80
2017-08-24T06:06:02.120Z,51.00
2017-08-24T06:07:06.815Z,49.30
2017-08-24T06:08:11.205Z,47.90
2017-08-24T06:09:15.894Z,46.30
2017-08-24T06:10:20.842Z,45.90
2017-08-24T06:11:25.402Z,44.20
2017-08-24T06:12:30.117Z,43.10
2017-08-24T06:13:34.508Z,43.50
2017-08-24T06:14:39.035Z,60.70
2017-08-24T06:15:43.867Z,55.00
2017-08-24T06:16:48.151Z,51.00
2017-08-24T06:17:52.639Z,48.00
2017-08-24T06:18:57.006Z,45.50
2017-08-24T06:20:01.336Z,43.70
2017-08-24T06:21:05.815Z,42.20
2017-08-24T06:22:10.264Z,40.70
2017-08-24T06:23:14.774Z,39.40
2017-08-24T06:24:20.245Z,38.40
2017-08-24T06:25:24.850Z,37.40
2017-08-24T06:26:29.333Z,36.50
2017-08-24T06:27:33.833Z,35.80
2017-08-24T06:28:38.384Z,35.20
2017-08-24T06:29:42.860Z,34.50
2017-08-24T06:30:47.288Z,33.90
2017-08-24T06:31:51.628Z,33.60
2017-08-24T06:32:56.136Z,34.20
2017-08-24T06:34:00.848Z,35.40
2017-08-24T06:35:05.462Z,37.10
2017-08-24T06:36:09.826Z,39.00
2017-08-24T06:37:14.361Z,41.10
2017-08-24T06:38:18.751Z,43.20
2017-08-24T06:39:23.158Z,45.30
2017-08-24T06:40:27.695Z,47.20
2017-08-24T06:41:32.086Z,49.10
2017-08-24T06:42:36.617Z,51.00
2017-08-24T06:43:41.007Z,52.80
2017-08-24T06:44:45.559Z,54.60
2017-08-24T06:45:50.209Z,56.30
2017-08-24T06:46:54.834Z,57.90
2017-08-24T06:47:59.610Z,59.40
2017-08-24T06:49:04.389Z,60.80
2017-08-24T06:50:09.170Z,77.00
2017-08-24T06:51:14.116Z,78.00
2017-08-24T06:52:19.456Z,77.90
2017-08-24T06:53:24.506Z,77.40
2017-08-24T06:54:29.283Z,76.90
2017-08-24T06:55:34.406Z,76.40
2017-08-24T06:56:39.325Z,76.50
2017-08-24T06:57:45.038Z,76.50
2017-08-24T06:58:49.706Z,76.90
2017-08-24T06:59:54.773Z,77.30
2017-08-24T07:00:59.756Z,77.80
2017-08-24T07:02:04.751Z,78.30
2017-08-24T07:03:09.821Z,78.80
2017-08-24T07:04:15.376Z,79.40
2017-08-24T07:05:20.453Z,80.10
2017-08-24T07:06:25.426Z,80.40
2017-08-24T07:07:30.404Z,81.10
2017-08-24T07:08:35.468Z,81.60
2017-08-24T07:09:40.503Z,82.10
2017-08-24T07:10:45.578Z,82.60
2017-08-24T07:11:50.307Z,83.00
2017-08-24T07:12:55.029Z,83.50
2017-08-24T07:13:59.699Z,83.90
2017-08-24T07:15:04.878Z,84.30
2017-08-24T07:16:09.508Z,84.80
2017-08-24T07:17:14.413Z,85.00
2017-08-24T07:18:19.304Z,86.10
2017-08-24T07:19:23.976Z,90.20
2017-08-24T07:20:28.557Z,88.70
2017-08-24T07:21:33.455Z,88.00
2017-08-24T07:22:43.497Z,87.70
2017-08-24T07:23:53.558Z,87.60
2017-08-24T07:25:00.827Z,87.10
2017-08-24T07:26:05.851Z,83.10
2017-08-24T07:27:10.641Z,79.40
2017-08-24T07:28:15.517Z,77.10
2017-08-24T07:29:20.538Z,75.00
2017-08-24T07:30:25.582Z,73.30
2017-08-24T07:31:31.523Z,69.60
2017-08-24T07:32:36.389Z,64.30
2017-08-24T07:33:40.978Z,60.50
2017-08-24T07:34:45.612Z,57.60
2017-08-24T07:35:50.102Z,54.90
2017-08-24T07:36:54.701Z,52.40
2017-08-24T07:37:59.493Z,50.10
2017-08-24T07:39:04.069Z,48.00
2017-08-24T07:41:19.276Z,44.40
2017-08-24T07:42:23.986Z,42.40
2017-08-24T07:43:28.962Z,40.80
2017-08-24T07:44:33.664Z,39.80
2017-08-24T07:45:38.035Z,38.80
2017-08-24T07:46:42.682Z,37.90
2017-08-24T07:47:47.381Z,36.80
2017-08-24T07:48:52.041Z,35.80
2017-08-24T07:49:56.589Z,35.00
2017-08-24T07:51:00.955Z,34.30
2017-08-24T07:52:05.519Z,33.50
2017-08-24T07:53:09.838Z,32.80
2017-08-24T07:54:14.307Z,32.20
2017-08-24T07:55:18.957Z,31.50
2017-08-24T07:56:23.422Z,31.20
2017-08-24T07:57:27.974Z,30.60
2017-08-24T07:58:32.463Z,30.10
2017-08-24T07:59:36.976Z,29.80
2017-08-24T08:00:41.451Z,29.40
2017-08-24T08:01:45.942Z,29.20
2017-08-24T08:02:50.330Z,28.90
2017-08-24T08:03:54.827Z,28.60
2017-08-24T08:04:59.247Z,28.90
2017-08-24T08:06:03.915Z,29.80
2017-08-24T08:07:08.293Z,31.30
2017-08-24T08:08:12.685Z,33.80
2017-08-24T08:09:17.281Z,36.10
2017-08-24T08:10:22.049Z,38.50
2017-08-24T08:11:26.773Z,40.90
2017-08-24T08:12:31.910Z,43.10
2017-08-24T08:13:36.909Z,45.30
2017-08-24T08:14:43.367Z,47.30
2017-08-24T08:15:48.579Z,49.10
2017-08-24T08:16:53.590Z,50.90
2017-08-24T08:17:58.626Z,52.50
2017-08-24T08:19:03.869Z,54.10
2017-08-24T08:20:09.318Z,55.50
2017-08-24T08:21:14.415Z,57.00
2017-08-24T08:22:19.138Z,58.00
2017-08-24T08:23:24.299Z,58.90
2017-08-24T08:24:29.289Z,59.40
2017-08-24T08:25:34.220Z,60.40
2017-08-24T08:26:39.209Z,60.90
2017-08-24T08:27:43.791Z,61.60
2017-08-24T08:28:48.599Z,62.60
2017-08-24T08:29:53.309Z,63.70
2017-08-24T08:30:58.239Z,64.40
2017-08-24T08:32:04.033Z,90.50
2017-08-24T08:33:10.102Z,90.10
2017-08-24T08:34:15.070Z,85.80
2017-08-24T08:35:20.188Z,92.00
2017-08-24T08:36:25.095Z,93.10
2017-08-24T08:37:30.082Z,91.00
2017-08-24T08:38:35.194Z,92.70
2017-08-24T08:39:40.431Z,91.50
2017-08-24T08:40:45.321Z,90.90
2017-08-24T08:41:50.344Z,90.80
2017-08-24T08:42:55.865Z,91.20
2017-08-24T08:44:01.432Z,91.20
2017-08-24T08:45:06.842Z,91.20
2017-08-24T08:46:12.777Z,91.20
2017-08-24T08:47:17.964Z,91.00
2017-08-24T08:48:23.179Z,89.90
2017-08-24T08:49:29.174Z,88.10
2017-08-24T08:50:34.323Z,87.40
2017-08-24T08:51:40.642Z,86.90
2017-08-24T08:52:45.830Z,86.70
2017-08-24T08:53:51.386Z,86.00
2017-08-24T08:54:56.509Z,84.30
2017-08-24T08:56:01.473Z,82.30
2017-08-24T08:57:06.778Z,80.00
2017-08-24T08:58:11.792Z,77.80
2017-08-24T08:59:16.857Z,74.80
2017-08-24T09:00:21.833Z,72.30
2017-08-24T09:01:26.542Z,68.90
2017-08-24T09:02:31.697Z,66.10
2017-08-24T09:03:39.939Z,62.50
2017-08-24T09:04:44.878Z,60.40
2017-08-24T09:05:51.236Z,78.10
2017-08-24T09:06:56.314Z,82.20
2017-08-24T09:08:01.655Z,76.50
2017-08-24T09:09:07.031Z,69.30
2017-08-24T09:10:12.374Z,62.40
2017-08-24T09:11:17.600Z,59.00
2017-08-24T09:12:22.853Z,56.50
2017-08-24T09:13:27.719Z,54.40
2017-08-24T09:14:32.952Z,52.50
2017-08-24T09:15:39.372Z,86.00
2017-08-24T09:16:44.678Z,85.70
2017-08-24T09:17:49.725Z,81.40
2017-08-24T09:18:54.977Z,77.30
2017-08-24T09:20:00.152Z,70.40
2017-08-24T09:21:05.406Z,65.70
2017-08-24T09:22:12.292Z,59.60
2017-08-24T09:23:17.683Z,56.80
2017-08-24T09:24:23.777Z,54.20
2017-08-24T09:25:30.905Z,52.60
2017-08-24T09:26:36.601Z,59.20
2017-08-24T09:27:41.665Z,78.90
2017-08-24T09:28:47.412Z,74.30
2017-08-24T09:29:52.740Z,66.80
2017-08-24T09:30:58.326Z,60.10
2017-08-24T09:32:03.738Z,56.00
2017-08-24T09:33:09.173Z,53.90
2017-08-24T09:34:14.394Z,52.80
2017-08-24T09:35:19.711Z,52.20
2017-08-24T09:36:24.602Z,52.30
2017-08-24T09:37:29.823Z,53.20
2017-08-24T09:38:34.941Z,54.50
2017-08-24T09:39:40.028Z,55.90
2017-08-24T09:40:45.035Z,57.20
2017-08-24T09:41:50.091Z,58.80
2017-08-24T09:42:55.101Z,60.70
2017-08-24T09:44:00.053Z,62.80
2017-08-24T09:45:05.403Z,65.00
2017-08-24T09:46:11.864Z,67.60
2017-08-24T09:47:16.594Z,69.40
2017-08-24T09:48:21.966Z,70.90
2017-08-24T09:49:27.125Z,71.90
2017-08-24T09:50:32.281Z,72.60
2017-08-24T09:51:37.343Z,73.10
2017-08-24T09:52:42.109Z,73.50
2017-08-24T09:53:47.174Z,74.20
2017-08-24T09:54:52.423Z,74.70
2017-08-24T09:55:57.475Z,76.10
2017-08-24T09:57:03.643Z,76.00
2017-08-24T09:58:09.010Z,76.50
2017-08-24T09:59:14.314Z,77.20
2017-08-24T10:00:19.519Z,77.60
2017-08-24T10:01:24.694Z,78.20
2017-08-24T10:02:29.854Z,78.80
2017-08-24T10:03:34.871Z,79.30
2017-08-24T10:04:40.480Z,80.00
2017-08-24T10:05:45.665Z,80.60
2017-08-24T10:06:50.830Z,81.40
2017-08-24T10:07:56.227Z,82.00
2017-08-24T10:09:01.562Z,82.80
2017-08-24T10:10:06.971Z,83.40
2017-08-24T10:11:12.630Z,84.00
2017-08-24T10:12:17.841Z,84.40
2017-08-24T10:13:23.638Z,84.80
2017-08-24T10:14:28.794Z,85.30
2017-08-24T10:15:34.977Z,85.70
2017-08-24T10:16:40.635Z,86.00
2017-08-24T10:17:45.831Z,86.30
2017-08-24T10:18:51.032Z,86.60
2017-08-24T10:19:57.535Z,86.80
2017-08-24T10:21:02.734Z,87.10
2017-08-24T10:22:07.730Z,87.30
2017-08-24T10:23:12.721Z,87.60
2017-08-24T10:24:18.774Z,87.70
2017-08-24T10:25:25.163Z,88.00
2017-08-24T10:26:33.116Z,88.20
2017-08-24T10:27:38.942Z,88.30
2017-08-24T10:28:44.230Z,88.40
2017-08-24T10:29:49.189Z,88.50
2017-08-24T10:30:54.174Z,88.70
2017-08-24T10:31:59.064Z,87.30
2017-08-24T10:33:04.532Z,81.20
2017-08-24T10:34:09.764Z,77.80
2017-08-24T10:35:14.828Z,76.20
2017-08-24T10:36:20.031Z,75.20
2017-08-24T10:37:24.963Z,74.30
2017-08-24T10:38:31.217Z,72.60
2017-08-24T10:39:44.360Z,68.80
2017-08-24T10:40:50.729Z,66.30
2017-08-24T10:41:55.739Z,62.50
2017-08-24T10:43:01.047Z,59.90
2017-08-24T10:44:06.365Z,56.90
2017-08-24T10:45:11.810Z,54.30
2017-08-24T10:46:16.865Z,52.30
2017-08-24T10:47:21.997Z,50.40
2017-08-24T10:48:28.664Z,48.50
2017-08-24T10:49:34.642Z,46.60
2017-08-24T10:50:40.744Z,44.90
2017-08-24T10:51:46.042Z,43.40
2017-08-24T10:52:51.307Z,42.20
2017-08-24T10:53:56.584Z,41.30
2017-08-24T10:55:01.733Z,40.60
2017-08-24T10:56:06.799Z,39.40
2017-08-24T10:57:12.129Z,38.60
2017-08-24T10:58:17.228Z,37.60
2017-08-24T10:59:22.260Z,36.90
2017-08-24T11:00:27.132Z,36.00
2017-08-24T11:01:31.893Z,35.20
2017-08-24T11:02:37.093Z,34.30
2017-08-24T11:03:42.062Z,70.30
2017-08-24T11:04:47.061Z,83.00
2017-08-24T11:05:51.910Z,80.00
2017-08-24T11:06:56.975Z,72.40
2017-08-24T11:08:02.003Z,62.40
2017-08-24T11:09:07.164Z,56.70
2017-08-24T11:10:12.224Z,52.50
2017-08-24T11:11:17.284Z,49.70
2017-08-24T11:12:23.548Z,47.10
2017-08-24T11:13:28.297Z,44.70
2017-08-24T11:14:34.941Z,43.10
2017-08-24T11:15:40.274Z,42.10
2017-08-24T11:16:45.173Z,42.10
2017-08-24T11:17:50.298Z,42.70
2017-08-24T11:18:54.959Z,43.80
2017-08-24T11:20:00.796Z,45.20
2017-08-24T11:21:05.891Z,46.70
2017-08-24T11:22:11.140Z,48.40
2017-08-24T11:23:16.209Z,50.00
2017-08-24T11:24:21.372Z,51.40
2017-08-24T11:25:26.320Z,53.00
2017-08-24T11:26:31.472Z,54.40
2017-08-24T11:27:36.453Z,55.70
2017-08-24T11:28:41.653Z,57.50
2017-08-24T11:29:46.746Z,74.70
2017-08-24T11:30:51.842Z,75.40
2017-08-24T11:31:56.640Z,76.10
2017-08-24T11:33:02.238Z,76.80
2017-08-24T11:34:07.161Z,76.90
2017-08-24T11:35:12.460Z,76.70
2017-08-24T11:36:17.257Z,76.70
2017-08-24T11:37:22.021Z,76.50
2017-08-24T11:38:27.283Z,76.50
2017-08-24T11:39:32.009Z,76.60
2017-08-24T11:40:36.999Z,76.50
2017-08-24T11:41:42.008Z,86.20
2017-08-24T11:42:46.909Z,86.20
2017-08-24T11:43:51.852Z,90.90
2017-08-24T11:44:57.393Z,90.70
2017-08-24T11:46:02.494Z,90.40
2017-08-24T11:47:07.646Z,89.10
2017-08-24T11:48:12.847Z,88.70
2017-08-24T11:49:17.697Z,88.80
2017-08-24T11:50:23.083Z,93.20
2017-08-24T11:51:28.663Z,92.90
2017-08-24T11:52:33.821Z,91.40
2017-08-24T11:53:39.194Z,90.90
2017-08-24T11:54:44.323Z,90.80
2017-08-24T11:55:50.514Z,90.90
2017-08-24T11:56:56.825Z,90.60
2017-08-24T11:58:03.044Z,89.30
2017-08-24T11:59:08.127Z,87.60
2017-08-24T12:00:13.685Z,86.80
2017-08-24T12:01:18.565Z,86.50
2017-08-24T12:02:23.966Z,85.60
2017-08-24T12:03:29.680Z,83.50
2017-08-24T12:04:35.129Z,81.50
2017-08-24T12:05:40.584Z,79.10
2017-08-24T12:06:46.663Z,77.30
2017-08-24T12:07:51.562Z,75.40
2017-08-24T12:08:56.895Z,73.00
2017-08-24T12:10:02.518Z,70.50
2017-08-24T12:11:08.100Z,68.20
2017-08-24T12:12:14.849Z,65.40
2017-08-24T12:13:21.516Z,63.10
2017-08-24T12:14:28.528Z,59.10
2017-08-24T12:15:33.620Z,58.00
2017-08-24T12:16:39.361Z,56.40
2017-08-24T12:17:44.703Z,54.20
2017-08-24T12:18:49.686Z,52.40
2017-08-24T12:19:54.799Z,51.40
2017-08-24T12:21:00.439Z,49.90
2017-08-24T12:22:06.401Z,48.80
2017-08-24T12:23:11.773Z,47.80
2017-08-24T12:24:16.657Z,46.50
2017-08-24T12:25:21.939Z,45.60
2017-08-24T12:26:26.931Z,44.10
2017-08-24T12:27:32.150Z,43.30
2017-08-24T12:28:37.285Z,42.30
2017-08-24T12:29:42.131Z,42.00
2017-08-24T12:30:47.250Z,42.50
2017-08-24T12:31:52.459Z,43.80
2017-08-24T12:32:57.498Z,45.40
2017-08-24T12:34:03.098Z,59.10
2017-08-24T12:35:14.494Z,60.60
2017-08-24T12:36:19.926Z,60.50
2017-08-24T12:37:26.167Z,61.30
2017-08-24T12:38:31.114Z,62.50
2017-08-24T12:39:36.130Z,63.70
2017-08-24T12:40:41.789Z,64.50
2017-08-24T12:41:51.279Z,65.70
2017-08-24T12:42:56.229Z,66.70
2017-08-24T12:44:01.335Z,67.60
2017-08-24T12:45:23.461Z,68.40
2017-08-24T12:46:28.690Z,69.40
2017-08-24T12:47:33.993Z,70.50
2017-08-24T12:48:39.845Z,71.10
2017-08-24T12:49:46.131Z,71.70
2017-08-24T12:50:51.541Z,72.50
2017-08-24T12:51:56.673Z,73.20
2017-08-24T12:53:01.899Z,74.00
2017-08-24T12:54:07.151Z,74.70
2017-08-24T12:55:19.131Z,86.10
2017-08-24T12:56:25.662Z,84.80
2017-08-24T12:57:32.239Z,90.70
2017-08-24T12:58:38.737Z,88.50
2017-08-24T12:59:46.209Z,87.70
2017-08-24T13:00:57.990Z,87.60
2017-08-24T13:02:21.853Z,87.60
2017-08-24T13:03:41.315Z,87.80
2017-08-24T13:04:46.655Z,87.90
2017-08-24T13:05:52.605Z,88.00
2017-08-24T13:06:58.090Z,88.10
2017-08-24T13:08:04.684Z,88.20
2017-08-24T13:09:09.980Z,88.40
2017-08-24T13:10:15.533Z,88.40
2017-08-24T13:11:39.067Z,88.50
2017-08-24T13:12:51.465Z,89.90
2017-08-24T13:13:56.862Z,89.90
2017-08-24T13:15:04.002Z,87.10
2017-08-24T13:16:10.543Z,85.00
2017-08-24T13:17:21.816Z,83.40
2017-08-24T13:18:27.453Z,82.50
2017-08-24T13:19:33.979Z,81.70
2017-08-24T13:20:40.501Z,79.10
2017-08-24T13:21:47.737Z,76.10
2017-08-24T13:22:53.555Z,71.70
2017-08-24T13:24:00.169Z,66.90
2017-08-24T13:25:05.927Z,62.60
2017-08-24T13:26:11.375Z,59.10
2017-08-24T13:27:20.043Z,56.20
2017-08-24T13:28:25.928Z,54.40
2017-08-24T13:29:32.473Z,52.00
2017-08-24T13:30:38.003Z,49.90
2017-08-24T13:31:43.243Z,48.20
2017-08-24T13:32:48.425Z,46.20
2017-08-24T13:33:53.660Z,44.70
2017-08-24T13:34:58.850Z,42.80
2017-08-24T13:36:04.137Z,41.90
2017-08-24T13:37:09.280Z,40.40
2017-08-24T13:38:14.513Z,39.40
2017-08-24T13:39:19.497Z,38.50
2017-08-24T13:40:24.647Z,37.40
2017-08-24T13:41:29.591Z,36.50
2017-08-24T13:42:35.035Z,35.80
2017-08-24T13:43:40.130Z,34.80
2017-08-24T13:44:45.218Z,34.00
2017-08-24T13:45:50.910Z,33.40
2017-08-24T13:46:55.961Z,32.80
2017-08-24T13:48:01.086Z,32.80
2017-08-24T13:49:06.246Z,33.90
2017-08-24T13:50:11.450Z,35.40
2017-08-24T13:51:16.196Z,37.30
2017-08-24T13:52:21.216Z,39.50
2017-08-24T13:53:26.145Z,41.60
2017-08-24T13:54:31.212Z,43.80
2017-08-24T13:55:36.236Z,45.80
2017-08-24T13:56:41.260Z,47.70
2017-08-24T13:57:46.346Z,49.40
2017-08-24T13:58:51.339Z,50.80